Time;durP1;ratioP1;P1;durP2;ratioP2;P2;SDS_P1;SDS_P2;PMS_P1;PMS_P2;Temp;Humidity;BMP_temperature;BMP_pressure;BME280_temperature;BME280_humidity;BME280_pressure;Samples;Min_cycle;Max_cycle;Signal;HPM_P1;HPM_P2
2022/03/03 00:00:48;;;;;;;27.10;14.50;;;;;;;1.08;52.89;102334.94;4964438;28;20031;-51
2022/03/03 00:03:14;;;;;;;28.98;14.02;;;;;;;1.08;53.18;102329.66;4965915;28;20023;-53
2022/03/03 00:05:39;;;;;;;31.33;14.68;;;;;;;1.06;53.42;102319.22;4961742;28;20066;-54
2022/03/03 00:08:05;;;;;;;29.65;14.18;;;;;;;1.04;53.36;102318.53;4966267;28;20090;-52
2022/03/03 00:10:31;;;;;;;29.65;14.55;;;;;;;1.03;53.11;102322.16;4965991;28;20069;-50
2022/03/03 00:12:56;;;;;;;28.02;14.68;;;;;;;1.02;53.07;102319.66;4961540;28;20041;-53
2022/03/03 00:15:22;;;;;;;28.88;15.05;;;;;;;1.00;53.56;102322.44;4960685;28;20086;-50
2022/03/03 00:17:47;;;;;;;28.30;14.70;;;;;;;0.99;53.67;102322.59;4961062;28;20530;-53
2022/03/03 00:20:13;;;;;;;27.25;14.02;;;;;;;0.97;53.38;102329.84;4965271;28;20164;-53
2022/03/03 00:22:38;;;;;;;21.92;13.02;;;;;;;0.94;53.59;102332.78;4965864;28;20023;-51
2022/03/03 00:25:05;;;;;;;29.80;15.90;;;;;;;0.92;53.50;102329.44;4963439;28;20245;-49
2022/03/03 00:27:31;;;;;;;30.48;14.43;;;;;;;0.89;53.83;102315.53;4967595;28;20034;-49
2022/03/03 00:29:56;;;;;;;32.40;15.60;;;;;;;0.88;53.93;102315.69;4965337;28;20034;-49
2022/03/03 00:32:22;;;;;;;32.92;14.93;;;;;;;0.87;53.65;102324.59;4962644;28;20156;-50
2022/03/03 00:34:47;;;;;;;27.90;14.77;;;;;;;0.83;53.95;102313.50;4956749;28;20055;-51
2022/03/03 00:37:13;;;;;;;30.58;15.32;;;;;;;0.80;54.08;102303.25;4962729;28;20101;-53
2022/03/03 00:39:39;;;;;;;28.42;14.80;;;;;;;0.76;53.99;102304.50;4966508;28;20027;-52
2022/03/03 00:42:04;;;;;;;32.55;14.93;;;;;;;0.72;54.27;102305.78;4968291;28;20101;-51
2022/03/03 00:44:30;;;;;;;28.15;14.50;;;;;;;0.68;54.41;102307.03;4962268;28;20484;-53
2022/03/03 00:46:55;;;;;;;30.58;14.85;;;;;;;0.66;54.54;102308.97;4965537;28;20034;-52
2022/03/03 00:49:21;;;;;;;30.50;14.45;;;;;;;0.62;54.36;102307.63;4962779;28;20034;-50
2022/03/03 00:51:46;;;;;;;31.55;15.27;;;;;;;0.59;54.44;102313.19;4965604;28;20027;-51
2022/03/03 00:54:12;;;;;;;30.27;16.25;;;;;;;0.56;54.72;102298.50;4965821;28;20140;-49
2022/03/03 00:56:37;;;;;;;30.90;16.90;;;;;;;0.54;54.62;102295.16;4964083;28;20129;-49
2022/03/03 00:59:04;;;;;;;31.02;16.55;;;;;;;0.52;54.85;102301.53;4966363;28;20041;-52
2022/03/03 01:01:29;;;;;;;34.15;15.43;;;;;;;0.50;55.12;102306.13;4965434;28;20473;-51
2022/03/03 01:03:55;;;;;;;32.58;16.30;;;;;;;0.48;54.92;102302.81;4960629;28;20048;-50
2022/03/03 01:06:20;;;;;;;30.98;16.63;;;;;;;0.44;55.03;102304.06;4967571;28;20034;-54
2022/03/03 01:08:46;;;;;;;32.65;16.52;;;;;;;0.42;54.87;102306.03;4964405;28;20061;-50
2022/03/03 01:11:11;;;;;;;32.67;15.90;;;;;;;0.40;55.00;102308.81;4962775;28;20030;-50
2022/03/03 01:13:37;;;;;;;33.17;17.02;;;;;;;0.37;55.33;102306.47;4964447;28;20512;-52
2022/03/03 01:16:03;;;;;;;30.17;15.93;;;;;;;0.35;55.07;102297.84;4964061;28;20027;-50
2022/03/03 01:18:29;;;;;;;31.67;16.20;;;;;;;0.35;54.78;102310.19;4963694;28;20038;-50
2022/03/03 01:20:55;;;;;;;32.80;15.57;;;;;;;0.32;55.53;102305.22;4964490;28;20511;-50
2022/03/03 01:23:21;;;;;;;29.42;15.88;;;;;;;0.30;55.06;102294.81;4966618;28;20030;-48
2022/03/03 01:25:46;;;;;;;29.48;15.50;;;;;;;0.28;55.04;102296.75;4966307;28;20065;-49
2022/03/03 01:28:12;;;;;;;26.10;15.65;;;;;;;0.26;55.24;102302.19;4966564;28;20480;-51
2022/03/03 01:30:38;;;;;;;29.77;15.32;;;;;;;0.22;55.64;102303.44;4966337;28;20680;-53
2022/03/03 01:33:05;;;;;;;25.98;15.23;;;;;;;0.20;55.55;102302.75;4962850;28;20524;-51
2022/03/03 01:35:30;;;;;;;27.70;14.85;;;;;;;0.20;55.64;102300.13;4965918;28;20030;-50
2022/03/03 01:37:56;;;;;;;28.92;15.20;;;;;;;0.16;55.42;102293.44;4964290;28;20026;-50
2022/03/03 01:40:22;;;;;;;26.08;15.05;;;;;;;0.15;55.61;102283.88;4965713;28;20498;-50
2022/03/03 01:42:50;;;;;;;28.15;15.05;;;;;;;0.09;55.88;102257.28;4960362;28;20527;-51
2022/03/03 01:45:15;;;;;;;27.20;14.57;;;;;;;0.04;56.23;102248.97;4965007;28;20034;-50
2022/03/03 01:47:41;;;;;;;27.25;14.75;;;;;;;-0.05;56.63;102246.19;4963724;28;20034;-54
2022/03/03 01:50:07;;;;;;;31.75;14.68;;;;;;;-0.08;56.63;102235.94;4966178;28;20073;-48
2022/03/03 01:52:33;;;;;;;29.05;13.70;;;;;;;-0.13;56.90;102232.09;4965791;28;20031;-49
2022/03/03 01:54:59;;;;;;;22.80;14.27;;;;;;;-0.18;56.85;102237.78;4961734;28;20042;-48
2022/03/03 01:57:25;;;;;;;28.58;14.60;;;;;;;-0.20;57.25;102252.03;4965690;28;20026;-53
2022/03/03 01:59:50;;;;;;;27.42;14.75;;;;;;;-0.20;57.29;102246.78;4962088;28;20031;-48
2022/03/03 02:02:16;;;;;;;28.92;14.10;;;;;;;-0.20;57.23;102246.78;4962078;28;20065;-50
2022/03/03 02:04:42;;;;;;;25.05;12.75;;;;;;;-0.18;57.29;102239.56;4964099;28;20053;-51
2022/03/03 02:07:09;;;;;;;24.13;13.48;;;;;;;-0.14;57.44;102240.97;4964731;28;20481;-52
2022/03/03 02:09:35;;;;;;;26.35;13.27;;;;;;;-0.12;57.06;102241.66;4964139;28;20216;-54
2022/03/03 02:12:02;;;;;;;28.38;14.38;;;;;;;-0.10;57.16;102242.34;4965546;28;20946;-50
2022/03/03 02:14:27;;;;;;;23.52;12.85;;;;;;;-0.10;57.24;102243.16;4964313;28;20401;-52
2022/03/03 02:16:52;;;;;;;26.30;14.05;;;;;;;-0.07;57.41;102249.94;4957970;28;20042;-49
2022/03/03 02:19:20;;;;;;;30.10;13.82;;;;;;;-0.06;57.21;102259.50;4962138;28;20057;-50
2022/03/03 02:21:46;;;;;;;31.10;15.20;;;;;;;-0.09;58.01;102244.00;4963500;28;20041;-52
2022/03/03 02:24:12;;;;;;;26.25;13.98;;;;;;;-0.10;57.95;102239.69;4961708;28;20029;-54
2022/03/03 02:26:39;;;;;;;25.50;13.70;;;;;;;-0.09;57.78;102238.72;4962592;28;20018;-50
2022/03/03 02:29:05;;;;;;;27.50;14.43;;;;;;;-0.11;57.93;102238.03;4961991;28;20085;-50
2022/03/03 02:31:31;;;;;;;28.40;14.68;;;;;;;-0.13;57.97;102246.09;4960416;28;20098;-50
2022/03/03 02:33:57;;;;;;;28.08;14.25;;;;;;;-0.13;58.38;102253.16;4961797;28;20504;-50
2022/03/03 02:36:26;;;;;;;25.20;14.77;;;;;;;-0.16;58.04;102249.00;4962147;28;20022;-49
2022/03/03 02:38:54;;;;;;;25.65;14.40;;;;;;;-0.14;58.37;102251.50;4961125;28;20066;-53
2022/03/03 02:41:20;;;;;;;29.30;15.63;;;;;;;-0.13;58.11;102253.16;4960907;28;20053;-50
2022/03/03 02:43:46;;;;;;;27.90;15.63;;;;;;;-0.14;58.49;102252.34;4959219;28;20113;-51
2022/03/03 02:46:12;;;;;;;27.95;14.80;;;;;;;-0.15;58.77;102250.66;4962641;28;20031;-52
2022/03/03 02:48:38;;;;;;;26.70;14.55;;;;;;;-0.14;58.67;102240.97;4962136;28;20282;-54
2022/03/03 02:51:04;;;;;;;26.88;16.08;;;;;;;-0.13;58.23;102245.25;4963721;28;20105;-49
2022/03/03 02:53:30;;;;;;;28.08;14.15;;;;;;;-0.12;58.40;102250.38;4961867;28;20230;-48
2022/03/03 02:55:55;;;;;;;30.92;15.70;;;;;;;-0.12;59.06;102239.84;4963115;28;20143;-53
2022/03/03 02:58:21;;;;;;;29.15;14.38;;;;;;;-0.11;58.63;102235.41;4963165;28;20125;-52
2022/03/03 03:00:47;;;;;;;28.73;16.13;;;;;;;-0.10;58.47;102239.69;4961182;28;20113;-50
2022/03/03 03:03:17;;;;;;;29.83;15.27;;;;;;;-0.11;58.68;102248.56;4961963;28;20077;-51
2022/03/03 03:05:43;;;;;;;31.58;15.85;;;;;;;-0.08;58.64;102245.66;4961672;28;20030;-54
2022/03/03 03:08:09;;;;;;;32.05;15.27;;;;;;;-0.09;59.03;102239.56;4963090;28;20049;-53
2022/03/03 03:10:35;;;;;;;29.70;15.80;;;;;;;-0.07;59.50;102242.03;4960579;28;20031;-52
2022/03/03 03:13:01;;;;;;;32.90;17.10;;;;;;;-0.07;59.43;102245.50;4961582;28;20086;-48
2022/03/03 03:15:26;;;;;;;36.47;18.80;;;;;;;-0.07;59.25;102242.03;4960562;28;20037;-51
2022/03/03 03:17:52;;;;;;;46.38;21.35;;;;;;;-0.07;59.28;102242.03;4961298;28;20031;-50
2022/03/03 03:20:18;;;;;;;71.38;32.38;;;;;;;-0.06;59.79;102248.97;4957407;28;20468;-49
2022/03/03 03:22:43;;;;;;;96.65;43.20;;;;;;;-0.07;59.98;102244.69;4962705;28;20023;-51
2022/03/03 03:25:11;;;;;;;91.30;43.55;;;;;;;-0.07;60.32;102234.13;4959695;28;20030;-49
2022/03/03 03:27:38;;;;;;;84.55;41.03;;;;;;;-0.06;60.74;102241.91;4962818;28;20051;-51
2022/03/03 03:30:05;;;;;;;74.28;35.33;;;;;;;-0.03;60.76;102244.25;4958628;28;20062;-52
2022/03/03 03:32:31;;;;;;;84.03;37.30;;;;;;;0.00;60.70;102229.97;4961376;28;20027;-52
2022/03/03 03:34:56;;;;;;;70.13;34.97;;;;;;;-0.04;61.15;102225.94;4960030;28;20126;-50
2022/03/03 03:37:22;;;;;;;73.55;34.63;;;;;;;-0.06;61.66;102220.81;4962603;28;20031;-49
2022/03/03 03:39:47;;;;;;;56.70;31.13;;;;;;;-0.06;61.67;102223.47;4962681;28;20480;-50
2022/03/03 03:42:13;;;;;;;60.28;29.50;;;;;;;-0.02;61.86;102224.00;4963322;28;20027;-49
2022/03/03 03:44:39;;;;;;;56.30;28.20;;;;;;;0.02;61.76;102212.22;4955544;28;21489;-53
2022/03/03 03:47:06;;;;;;;54.53;27.02;;;;;;;0.04;62.09;102214.72;4958659;28;20507;-49
2022/03/03 03:49:33;;;;;;;54.83;26.80;;;;;;;0.06;62.44;102218.88;4955493;28;20773;-50
2022/03/03 03:51:58;;;;;;;52.58;25.77;;;;;;;0.10;61.73;102217.59;4961565;28;20161;-51
2022/03/03 03:54:24;;;;;;;46.08;24.35;;;;;;;0.14;62.17;102213.69;4961329;28;20114;-49
2022/03/03 03:56:49;;;;;;;53.63;24.40;;;;;;;0.16;62.59;102217.00;4959958;28;20613;-48
2022/03/03 03:59:15;;;;;;;52.53;25.10;;;;;;;0.18;63.10;102217.72;4959356;28;20046;-51
2022/03/03 04:01:40;;;;;;;67.70;31.67;;;;;;;0.19;63.12;102203.56;4961732;28;20022;-48
2022/03/03 04:04:06;;;;;;;61.53;27.60;;;;;;;0.20;63.11;102197.31;4960496;28;20031;-54
2022/03/03 04:06:32;;;;;;;64.50;29.33;;;;;;;0.23;63.80;102197.03;4962615;28;20054;-49
2022/03/03 04:08:58;;;;;;;74.22;29.45;;;;;;;0.26;63.74;102180.09;4962003;28;20165;-54
2022/03/03 04:11:24;;;;;;;60.38;27.08;;;;;;;0.26;63.90;102175.63;4960864;28;20022;-48
2022/03/03 04:13:49;;;;;;;64.90;27.35;;;;;;;0.30;64.26;102182.28;4964674;28;20031;-48
2022/03/03 04:16:15;;;;;;;62.50;28.40;;;;;;;0.33;64.84;102190.88;4963703;28;20030;-51
2022/03/03 04:18:41;;;;;;;54.85;25.88;;;;;;;0.35;64.92;102178.38;4963497;28;20025;-52
2022/03/03 04:21:07;;;;;;;58.17;24.35;;;;;;;0.37;64.94;102166.72;4963233;28;20091;-51
2022/03/03 04:23:32;;;;;;;54.40;23.52;;;;;;;0.38;65.67;102178.09;4964747;28;20577;-53
2022/03/03 04:25:58;;;;;;;57.35;24.67;;;;;;;0.36;66.02;102185.28;4965403;28;20531;-55
2022/03/03 04:28:23;;;;;;;52.53;23.70;;;;;;;0.38;66.57;102183.38;4963629;28;20034;-50
2022/03/03 04:30:49;;;;;;;58.53;23.40;;;;;;;0.39;66.56;102185.03;4965545;28;20031;-53
2022/03/03 04:33:15;;;;;;;58.05;25.20;;;;;;;0.41;66.79;102186.53;4963019;28;20027;-51
2022/03/03 04:35:41;;;;;;;57.75;23.60;;;;;;;0.42;67.12;102190.00;4961892;28;20030;-53
2022/03/03 04:38:06;;;;;;;54.58;22.48;;;;;;;0.44;67.21;102185.41;4960521;28;20030;-51
2022/03/03 04:40:32;;;;;;;63.88;22.88;;;;;;;0.46;67.52;102175.53;4966104;28;20092;-53
2022/03/03 04:42:58;;;;;;;56.90;22.88;;;;;;;0.46;67.66;102173.75;4967024;28;20027;-53
2022/03/03 04:45:23;;;;;;;54.53;21.90;;;;;;;0.48;67.58;102177.06;4963813;28;20050;-50
2022/03/03 04:47:49;;;;;;;59.42;21.52;;;;;;;0.51;68.00;102179.38;4964015;28;20034;-49
2022/03/03 04:50:15;;;;;;;56.25;22.98;;;;;;;0.53;68.09;102176.59;4965471;28;20260;-53
2022/03/03 04:52:41;;;;;;;54.67;20.92;;;;;;;0.55;68.16;102175.50;4961787;28;20058;-50
2022/03/03 04:55:07;;;;;;;52.03;20.52;;;;;;;0.57;68.27;102156.91;4965655;28;20428;-49
2022/03/03 04:57:33;;;;;;;48.58;20.38;;;;;;;0.58;68.23;102151.47;4967006;28;20087;-48
2022/03/03 04:59:59;;;;;;;46.58;20.40;;;;;;;0.60;68.49;102152.16;4965058;28;20382;-48
2022/03/03 05:02:24;;;;;;;55.67;21.80;;;;;;;0.63;68.47;102166.00;4964888;28;20049;-48
2022/03/03 05:04:50;;;;;;;53.60;21.20;;;;;;;0.65;68.25;102164.06;4961388;28;20412;-48
2022/03/03 05:07:16;;;;;;;48.92;20.15;;;;;;;0.68;68.59;102154.03;4966047;28;20101;-48
2022/03/03 05:09:41;;;;;;;50.38;20.42;;;;;;;0.70;68.32;102165.25;4966935;28;20113;-49
2022/03/03 05:12:08;;;;;;;51.60;20.85;;;;;;;0.72;68.34;102154.56;4965694;28;20155;-48
2022/03/03 05:14:33;;;;;;;47.65;19.38;;;;;;;0.74;68.57;102150.81;4964756;28;20065;-48
2022/03/03 05:16:59;;;;;;;47.88;18.85;;;;;;;0.77;68.68;102154.97;4959512;28;20504;-47
2022/03/03 05:19:24;;;;;;;41.88;18.52;;;;;;;0.78;67.99;102162.72;4963925;28;20034;-48
2022/03/03 05:21:50;;;;;;;47.58;18.55;;;;;;;0.81;68.61;102164.22;4961768;28;20507;-47
2022/03/03 05:24:15;;;;;;;46.80;18.45;;;;;;;0.81;68.53;102159.78;4962772;28;20559;-47
2022/03/03 05:26:41;;;;;;;44.15;18.85;;;;;;;0.83;69.01;102172.81;4960939;28;20034;-48
2022/03/03 05:29:07;;;;;;;43.53;19.67;;;;;;;0.85;68.77;102162.94;4964232;28;20280;-48
2022/03/03 05:31:33;;;;;;;42.03;17.27;;;;;;;0.84;68.87;102170.03;4961934;28;20038;-47
2022/03/03 05:33:59;;;;;;;42.20;16.95;;;;;;;0.85;68.83;102169.06;4959097;28;20100;-48
2022/03/03 05:36:26;;;;;;;39.20;17.30;;;;;;;0.87;68.77;102168.91;4963637;28;20023;-48
2022/03/03 05:38:53;;;;;;;44.30;16.60;;;;;;;0.89;68.97;102170.41;4960488;28;20066;-49
2022/03/03 05:41:18;;;;;;;46.97;17.02;;;;;;;0.90;68.69;102168.63;4963145;28;20030;-50
2022/03/03 05:43:44;;;;;;;41.70;17.17;;;;;;;0.90;68.96;102164.19;4959258;28;20436;-48
2022/03/03 05:46:10;;;;;;;42.03;16.98;;;;;;;0.93;69.28;102170.13;4962829;28;20031;-48
2022/03/03 05:48:35;;;;;;;40.08;17.08;;;;;;;0.94;69.32;102172.63;4962301;28;20031;-49
2022/03/03 05:51:01;;;;;;;36.30;15.43;;;;;;;0.96;69.48;102178.56;4958394;28;20306;-49
2022/03/03 05:53:27;;;;;;;43.25;17.35;;;;;;;0.97;69.39;102179.41;4961945;28;20472;-48
2022/03/03 05:55:56;;;;;;;38.20;15.85;;;;;;;0.97;69.43;102185.50;4960438;28;22057;-49
2022/03/03 05:58:26;;;;;;;40.40;16.40;;;;;;;1.00;69.12;102190.47;4961258;28;20022;-48
2022/03/03 06:00:56;;;;;;;39.90;15.73;;;;;;;1.00;69.65;102184.38;4960034;28;20485;-48
2022/03/03 06:03:23;;;;;;;38.97;16.08;;;;;;;1.01;69.31;102180.75;4957520;28;20512;-48
2022/03/03 06:05:52;;;;;;;43.95;16.08;;;;;;;1.02;69.43;102185.03;4962751;28;20037;-48
2022/03/03 06:08:30;;;;;;;35.80;16.08;;;;;;;0.99;69.61;102169.50;4959818;28;20591;-49
2022/03/03 06:11:02;;;;;;;35.47;14.55;;;;;;;1.00;70.12;102179.91;4957115;28;20057;-48
2022/03/03 06:13:35;;;;;;;37.38;14.77;;;;;;;1.01;69.51;102186.03;4960926;28;20053;-48
2022/03/03 06:16:03;;;;;;;32.17;14.90;;;;;;;1.06;69.58;102189.03;4955410;28;20061;-48
2022/03/03 06:18:32;;;;;;;29.88;12.77;;;;;;;1.09;69.34;102183.47;4961765;28;20038;-48
2022/03/03 06:20:58;;;;;;;34.65;13.38;;;;;;;1.11;69.78;102182.34;4962249;28;20470;-48
2022/03/03 06:23:24;;;;;;;31.88;13.90;;;;;;;1.16;69.26;102184.53;4964667;28;20043;-49
2022/03/03 06:26:04;;;;;;;34.20;12.85;;;;;;;1.14;69.34;102173.28;4963701;28;20034;-49
2022/03/03 06:28:31;;;;;;;29.48;12.10;;;;;;;1.21;69.40;102172.53;4965753;28;20067;-47
2022/03/03 06:30:57;;;;;;;32.10;12.73;;;;;;;1.25;69.10;102173.03;4963339;28;20375;-48
2022/03/03 06:33:23;;;;;;;31.38;13.93;;;;;;;1.26;69.56;102180.00;4965752;28;20026;-49
2022/03/03 06:35:49;;;;;;;28.85;12.90;;;;;;;1.25;69.43;102173.03;4964241;28;20103;-49
2022/03/03 06:38:14;;;;;;;30.63;12.57;;;;;;;1.26;69.13;102166.81;4965171;28;20031;-48
2022/03/03 06:40:40;;;;;;;31.73;12.23;;;;;;;1.28;69.67;102183.31;4961926;28;20038;-48
2022/03/03 06:43:06;;;;;;;34.95;14.20;;;;;;;1.28;69.59;102180.69;4965776;28;20668;-50
2022/03/03 06:45:32;;;;;;;33.70;13.70;;;;;;;1.31;69.50;102175.09;4962937;28;20122;-48
2022/03/03 06:47:59;;;;;;;32.03;12.90;;;;;;;1.32;69.47;102175.94;4964613;28;20085;-48
2022/03/03 06:50:26;;;;;;;33.70;12.68;;;;;;;1.34;69.96;102182.72;4965587;28;20315;-51
2022/03/03 06:52:51;;;;;;;31.70;13.15;;;;;;;1.36;69.58;102175.47;4965785;28;20031;-51
2022/03/03 06:55:20;;;;;;;33.38;13.00;;;;;;;1.35;69.74;102173.81;4963796;28;20491;-47
2022/03/03 06:57:48;;;;;;;29.25;12.27;;;;;;;1.40;69.65;102191.81;4964642;28;20278;-50
2022/03/03 07:00:17;;;;;;;34.33;13.27;;;;;;;1.39;69.67;102196.28;4962862;28;20030;-48
2022/03/03 07:02:43;;;;;;;35.17;13.90;;;;;;;1.40;69.80;102195.28;4965104;28;20398;-48
2022/03/03 07:05:11;;;;;;;32.00;13.32;;;;;;;1.39;69.83;102183.06;4962245;28;20045;-50
2022/03/03 07:07:37;;;;;;;29.02;13.02;;;;;;;1.41;69.42;102188.19;4964632;28;20520;-48
2022/03/03 07:10:03;;;;;;;27.83;11.85;;;;;;;1.42;70.08;102190.69;4963098;28;20039;-48
2022/03/03 07:12:31;;;;;;;30.10;13.23;;;;;;;1.43;70.11;102188.88;4962806;28;20327;-48
2022/03/03 07:14:56;;;;;;;32.80;13.77;;;;;;;1.45;69.86;102177.19;4961707;28;20035;-48
2022/03/03 07:17:45;;;;;;;31.27;15.68;;;;;;;1.39;70.54;102180.44;4962048;28;20104;-48
2022/03/03 07:20:17;;;;;;;30.83;14.18;;;;;;;1.46;70.14;102201.78;4954913;28;20037;-48
2022/03/03 07:23:00;;;;;;;30.60;12.48;;;;;;;1.44;70.51;102201.94;4960777;28;20118;-48
2022/03/03 07:25:36;;;;;;;29.25;13.27;;;;;;;1.50;69.71;102193.41;4959234;28;20033;-47
2022/03/03 07:28:07;;;;;;;32.60;13.93;;;;;;;1.54;70.35;102193.09;4961654;28;20055;-48
2022/03/03 07:30:38;;;;;;;32.58;14.23;;;;;;;1.55;70.33;102189.47;4960011;28;20121;-49
2022/03/03 07:33:19;;;;;;;31.75;13.88;;;;;;;1.52;70.78;102194.09;4963804;28;20165;-48
2022/03/03 07:35:49;;;;;;;32.63;12.77;;;;;;;1.59;70.25;102193.47;4960851;28;20035;-49
2022/03/03 07:38:19;;;;;;;34.10;14.15;;;;;;;1.62;70.14;102191.38;4963226;28;20049;-48
2022/03/03 07:40:48;;;;;;;30.23;13.35;;;;;;;1.65;70.23;102201.63;4961879;28;20031;-48
2022/03/03 07:43:15;;;;;;;34.83;13.15;;;;;;;1.66;70.44;102207.72;4962882;28;20035;-49
2022/03/03 07:45:42;;;;;;;31.88;13.25;;;;;;;1.68;70.49;102216.31;4960450;28;20031;-48
2022/03/03 07:48:08;;;;;;;32.67;12.90;;;;;;;1.71;70.27;102213.38;4965910;28;20197;-48
2022/03/03 07:50:39;;;;;;;33.67;13.05;;;;;;;1.75;70.19;102209.44;4965408;28;20073;-48
2022/03/03 07:53:10;;;;;;;37.58;13.45;;;;;;;1.77;70.50;102205.66;4967182;28;20031;-48
2022/03/03 07:55:44;;;;;;;39.28;16.00;;;;;;;1.77;70.68;102216.22;4961492;28;20038;-47
2022/03/03 07:58:14;;;;;;;35.50;15.27;;;;;;;1.81;70.63;102222.03;4958010;28;20432;-48
2022/03/03 08:00:46;;;;;;;43.67;14.52;;;;;;;1.85;70.35;102223.38;4962328;28;20046;-48
2022/03/03 08:03:16;;;;;;;32.35;13.93;;;;;;;1.88;70.43;102230.19;4963986;28;20400;-48
2022/03/03 08:05:45;;;;;;;34.03;13.60;;;;;;;1.90;70.47;102233.50;4963191;28;20014;-49
2022/03/03 08:08:16;;;;;;;37.70;13.68;;;;;;;1.90;70.89;102226.38;4963766;28;20576;-48
2022/03/03 08:10:45;;;;;;;33.92;13.45;;;;;;;1.91;70.84;102225.41;4964465;28;20065;-49
2022/03/03 08:13:14;;;;;;;27.67;11.65;;;;;;;1.92;71.17;102234.16;4961857;28;20037;-50
2022/03/03 08:15:41;;;;;;;32.92;12.85;;;;;;;1.91;71.32;102238.63;4963817;28;20471;-48
2022/03/03 08:18:08;;;;;;;32.33;11.75;;;;;;;1.91;71.34;102238.63;4966896;28;20057;-48
2022/03/03 08:20:34;;;;;;;30.90;12.48;;;;;;;1.94;71.51;102232.19;4965799;28;20600;-48
2022/03/03 08:23:01;;;;;;;32.03;11.82;;;;;;;1.93;71.15;102236.66;4965367;28;20410;-48
2022/03/03 08:25:27;;;;;;;28.33;11.95;;;;;;;1.96;71.13;102240.78;4963513;28;20034;-48
2022/03/03 08:27:54;;;;;;;30.60;12.32;;;;;;;1.98;71.49;102244.97;4961767;28;20039;-48
2022/03/03 08:30:21;;;;;;;27.90;12.73;;;;;;;2.00;71.29;102245.63;4965769;28;20492;-49
2022/03/03 08:33:08;;;;;;;28.98;11.88;;;;;;;1.98;71.68;102234.38;4964708;28;20455;-49
2022/03/03 08:35:40;;;;;;;30.90;11.80;;;;;;;2.02;71.36;102235.72;4965528;28;20117;-47
2022/03/03 08:38:32;;;;;;;29.95;11.10;;;;;;;2.00;71.64;102253.56;4966112;28;20069;-48
2022/03/03 08:40:59;;;;;;;31.95;12.13;;;;;;;2.06;71.55;102245.00;4964707;28;20110;-50
2022/03/03 08:43:27;;;;;;;32.08;12.63;;;;;;;2.06;71.37;102231.78;4964384;28;20039;-48
2022/03/03 08:46:02;;;;;;;32.38;11.52;;;;;;;2.08;71.78;102242.19;4964516;28;20441;-47
2022/03/03 08:48:30;;;;;;;47.50;16.05;;;;;;;2.09;72.00;102247.34;4965547;28;20093;-48
2022/03/03 08:50:57;;;;;;;34.83;13.27;;;;;;;2.11;71.66;102240.06;4962344;28;21043;-49
2022/03/03 08:53:23;;;;;;;40.33;13.43;;;;;;;2.13;71.82;102248.69;4965436;28;20085;-49
2022/03/03 08:55:48;;;;;;;42.83;13.38;;;;;;;2.16;71.79;102238.78;4963431;28;20038;-48
2022/03/03 08:58:14;;;;;;;38.65;13.00;;;;;;;2.19;71.68;102238.47;4963285;28;20038;-48
2022/03/03 09:00:40;;;;;;;35.90;11.23;;;;;;;2.17;72.43;102233.34;4963505;28;20027;-49
2022/03/03 09:03:06;;;;;;;37.42;13.38;;;;;;;2.20;71.96;102242.78;4965179;28;20794;-49
2022/03/03 09:05:32;;;;;;;35.13;13.32;;;;;;;2.22;72.36;102246.09;4962320;28;20030;-48
2022/03/03 09:07:58;;;;;;;34.72;13.73;;;;;;;2.22;72.15;102238.16;4962635;28;20035;-48
2022/03/03 09:10:24;;;;;;;30.73;12.02;;;;;;;2.24;72.42;102244.13;4963349;28;20035;-48
2022/03/03 09:12:50;;;;;;;28.95;12.55;;;;;;;2.23;72.43;102232.72;4962076;28;20038;-48
2022/03/03 09:15:16;;;;;;;32.38;11.77;;;;;;;2.24;72.52;102238.84;4963092;28;20030;-49
2022/03/03 09:17:43;;;;;;;29.38;11.38;;;;;;;2.25;72.40;102246.59;4963346;28;20038;-48
2022/03/03 09:20:13;;;;;;;28.75;9.95;;;;;;;2.28;72.86;102242.81;4956805;28;20035;-48
2022/03/03 09:22:39;;;;;;;29.23;10.63;;;;;;;2.28;72.46;102240.16;4962430;28;20035;-48
2022/03/03 09:25:06;;;;;;;26.27;10.13;;;;;;;2.30;72.47;102230.25;4964964;28;20046;-48
2022/03/03 09:27:31;;;;;;;22.15;10.27;;;;;;;2.31;72.40;102223.97;4958625;28;20031;-49
2022/03/03 09:29:57;;;;;;;22.98;9.45;;;;;;;2.32;72.46;102237.03;4964541;28;20035;-50
2022/03/03 09:32:23;;;;;;;27.10;10.20;;;;;;;2.35;72.41;102235.94;4965014;28;20324;-48
2022/03/03 09:34:48;;;;;;;23.15;9.85;;;;;;;2.36;72.52;102243.69;4962638;28;20539;-48
2022/03/03 09:37:15;;;;;;;24.58;9.95;;;;;;;2.40;72.19;102238.91;4963887;28;20030;-48
2022/03/03 09:39:41;;;;;;;22.92;11.38;;;;;;;2.42;72.36;102237.78;4962116;28;20033;-48
2022/03/03 09:42:08;;;;;;;26.45;10.30;;;;;;;2.46;72.15;102238.28;4964055;28;20400;-48
2022/03/03 09:44:33;;;;;;;25.95;10.85;;;;;;;2.50;72.45;102244.91;4962538;28;20498;-48
2022/03/03 09:46:59;;;;;;;27.00;9.63;;;;;;;2.53;72.11;102243.78;4963498;28;20122;-49
2022/03/03 09:49:25;;;;;;;24.00;9.95;;;;;;;2.58;72.00;102244.97;4963754;28;20066;-48
2022/03/03 09:51:51;;;;;;;22.42;10.23;;;;;;;2.60;71.96;102239.50;4963218;28;20030;-48
2022/03/03 09:54:17;;;;;;;24.70;9.88;;;;;;;2.62;72.02;102238.34;4962035;28;20126;-48
2022/03/03 09:56:42;;;;;;;26.70;9.32;;;;;;;2.65;71.93;102243.31;4960430;28;20031;-49
2022/03/03 09:59:08;;;;;;;25.63;10.23;;;;;;;2.66;72.08;102242.31;4963142;28;20078;-48
2022/03/03 10:01:35;;;;;;;18.73;8.43;;;;;;;2.68;72.09;102247.47;4960999;28;20270;-48
2022/03/03 10:04:17;;;;;;;24.83;9.27;;;;;;;2.66;72.30;102246.78;4964718;28;20248;-48
2022/03/03 10:06:43;;;;;;;26.45;8.80;;;;;;;2.74;72.12;102244.19;4964073;28;20038;-49
2022/03/03 10:09:09;;;;;;;17.40;8.23;;;;;;;2.76;71.97;102241.38;4963537;28;20392;-49
2022/03/03 10:12:05;;;;;;;25.13;9.23;;;;;;;2.74;72.40;102236.25;4959901;28;20026;-50
2022/03/03 10:14:33;;;;;;;21.77;9.27;;;;;;;2.84;72.19;102233.47;4960933;28;20050;-49
2022/03/03 10:17:00;;;;;;;25.50;9.07;;;;;;;2.86;71.92;102239.41;4964432;28;20101;-48
2022/03/03 10:19:26;;;;;;;19.50;8.82;;;;;;;2.89;71.87;102244.41;4963230;28;20039;-48
2022/03/03 10:21:52;;;;;;;19.52;9.05;;;;;;;2.94;71.87;102244.75;4961569;28;20030;-48
2022/03/03 10:24:24;;;;;;;26.42;9.57;;;;;;;2.96;71.54;102242.78;4962860;28;20027;-47
2022/03/03 10:27:02;;;;;;;16.55;8.70;;;;;;;2.97;71.74;102245.25;4959659;28;20046;-49
2022/03/03 10:29:28;;;;;;;19.80;8.75;;;;;;;3.05;71.84;102241.78;4961531;28;20477;-51
2022/03/03 10:31:56;;;;;;;24.85;10.73;;;;;;;3.07;71.70;102245.13;4961114;28;21461;-49
2022/03/03 10:34:33;;;;;;;17.90;8.18;;;;;;;3.10;71.46;102242.16;4959987;28;20497;-48
2022/03/03 10:37:07;;;;;;;18.25;8.13;;;;;;;3.17;71.18;102237.84;4961943;28;20034;-48
2022/03/03 10:39:43;;;;;;;17.08;8.25;;;;;;;3.20;71.72;102232.22;4960711;28;20045;-48
2022/03/03 10:42:15;;;;;;;20.73;8.85;;;;;;;3.23;71.45;102237.22;4959646;28;20378;-49
2022/03/03 10:44:41;;;;;;;19.05;8.63;;;;;;;3.30;71.26;102245.31;4957070;28;20122;-48
2022/03/03 10:47:12;;;;;;;23.38;8.85;;;;;;;3.33;71.30;102245.00;4958292;28;20048;-49
2022/03/03 10:49:47;;;;;;;19.80;8.40;;;;;;;3.37;71.28;102242.84;4959368;28;20030;-50
2022/03/03 10:52:20;;;;;;;22.05;9.07;;;;;;;3.39;71.39;102240.84;4962016;28;20080;-50
2022/03/03 10:55:02;;;;;;;19.38;8.35;;;;;;;3.40;71.38;102238.03;4961137;28;20065;-48
2022/03/03 10:57:43;;;;;;;20.92;9.38;;;;;;;3.44;71.36;102235.91;4960536;28;20027;-51
2022/03/03 11:00:14;;;;;;;21.88;9.48;;;;;;;3.50;71.17;102237.88;4959949;28;20121;-51
2022/03/03 11:02:43;;;;;;;24.17;9.05;;;;;;;3.53;71.16;102235.72;4960452;28;20106;-51
2022/03/03 11:05:11;;;;;;;23.88;8.93;;;;;;;3.55;71.19;102227.63;4958795;28;20031;-53
2022/03/03 11:07:41;;;;;;;20.60;8.07;;;;;;;3.58;71.04;102237.88;4959178;28;20301;-49
2022/03/03 11:10:07;;;;;;;26.15;9.73;;;;;;;3.61;71.02;102232.28;4956918;28;20035;-49
2022/03/03 11:12:33;;;;;;;20.70;8.80;;;;;;;3.63;70.99;102223.16;4961062;28;20023;-49
2022/03/03 11:15:00;;;;;;;19.25;9.32;;;;;;;3.67;71.28;102228.94;4959999;28;20042;-49
2022/03/03 11:17:26;;;;;;;22.55;8.82;;;;;;;3.72;70.97;102228.44;4960246;28;20030;-49